^^
Datos históricos de la estación: Murcia-Puente Tocinos
Diario Informe para Mayo 26, 2019 Unidades:  Métrico    Ingés   Ambas
Diario Semanal Mensual Anual
  Máxima: Mínima: Promedio:
Temperatura: 28.9 °C 23.1 °C 25.5 °C
Punto de rocio: 21.7 °C 19 °C 20.6 °C
Humedad: 87% 56.8% 75%
Velocidad viento: 20.9km/h 0km/h 8.7km/h
Racha viento: 38.9km/h - -
Viento- - ESE
Presión: 1015.3 hPa 1011.1 hPa -
Precipitación: 0.0 mm    
 
 
Tabla de datos para Mayo 26, 2019
Hora Temperatura Punto de rocio Presión Viento Velocidad viento Racha viento Humedad Intensidad lluvia(por hora) Nubes
00:04 24.6 °C 20.7 °C 1015.1 hPa Calm   5.6 km/h 79% 0.0 mm
00:09 24.6 °C 20.7 °C 1015.1 hPa NO 0.6 km/h 5 km/h 79% 0.0 mm
00:14 24.6 °C 20.8 °C 1015.1 hPa NO 2.2 km/h 5.6 km/h 79.2% 0.0 mm
00:19 24.6 °C 20.9 °C 1015.3 hPa NO 2.2 km/h 5.6 km/h 80% 0.0 mm
00:24 24.5 °C 20.8 °C 1015.3 hPa NO 2.2 km/h 4.8 km/h 80% 0.0 mm
00:29 24.5 °C 20.8 °C 1015.3 hPa NO 1.7 km/h 5 km/h 80% 0.0 mm
00:34 24.5 °C 20.8 °C 1015.3 hPa Calm   5.6 km/h 80% 0.0 mm
00:39 24.5 °C 20.8 °C 1015.2 hPa Calm   4.8 km/h 80% 0.0 mm
00:44 24.5 °C 20.9 °C 1015.2 hPa Calm   5.8 km/h 80% 0.0 mm
00:49 24.5 °C 21 °C 1015.2 hPa Calm   6.4 km/h 80.6% 0.0 mm
00:54 24.4 °C 20.8 °C 1015.1 hPa Calm   5.6 km/h 80.3% 0.0 mm
00:59 24.4 °C 20.7 °C 1015.1 hPa NNO 0.7 km/h 5.6 km/h 80% 0.0 mm
01:04 24.4 °C 20.7 °C 1015.1 hPa NNO 2.2 km/h 4.8 km/h 80% 0.0 mm
01:09 24.3 °C 20.8 °C 1015.0 hPa North 2.4 km/h 7.4 km/h 80.7% 0.0 mm
01:14 24.3 °C 20.8 °C 1015.0 hPa North 2.9 km/h 8 km/h 81% 0.0 mm
01:19 24.3 °C 20.8 °C 1015.0 hPa North 3 km/h 8 km/h 81% 0.0 mm
01:24 24.3 °C 20.8 °C 1015.0 hPa North 3.2 km/h 4.8 km/h 81% 0.0 mm
01:29 24.3 °C 20.8 °C 1015.0 hPa North 2.4 km/h 4.8 km/h 81% 0.0 mm
01:34 24.3 °C 20.8 °C 1015.0 hPa Calm   5 km/h 81% 0.0 mm
01:39 24.2 °C 20.7 °C 1014.7 hPa NNO 0.8 km/h 7.4 km/h 81% 0.0 mm
01:44 24.2 °C 20.7 °C 1014.7 hPa NO 2.9 km/h 8 km/h 81% 0.0 mm
01:49 24.1 °C 20.7 °C 1014.7 hPa NO 2.9 km/h 8 km/h 81.2% 0.0 mm
01:54 24.1 °C 20.8 °C 1014.5 hPa NNO 2.9 km/h 8 km/h 82% 0.0 mm
01:59 24.1 °C 20.8 °C 1014.5 hPa NNO 2.9 km/h 8 km/h 82% 0.0 mm
02:04 24 °C 20.7 °C 1014.5 hPa NNO 2.9 km/h 3.2 km/h 82% 0.0 mm
02:09 24 °C 20.7 °C 1014.5 hPa NNO 2.1 km/h   82% 0.0 mm
02:14 24 °C 20.8 °C 1014.5 hPa Calm   6.9 km/h 82.2% 0.0 mm
02:19 23.9 °C 20.9 °C 1014.5 hPa North 0.7 km/h 8 km/h 83% 0.0 mm
02:24 23.9 °C 20.8 °C 1014.4 hPa North 2.9 km/h 8 km/h 83% 0.0 mm
02:29 23.9 °C 20.8 °C 1014.4 hPa NNE 3 km/h 8 km/h 83% 0.0 mm
02:34 23.9 °C 20.8 °C 1014.4 hPa NNO 3.2 km/h 8 km/h 83% 0.0 mm
02:39 23.9 °C 20.8 °C 1014.3 hPa North 3.2 km/h 8 km/h 83% 0.0 mm
02:44 23.9 °C 21 °C 1014.3 hPa North 3.2 km/h 7.4 km/h 83.9% 0.0 mm
02:49 23.8 °C 20.9 °C 1014.3 hPa NNE 3.4 km/h 8 km/h 84% 0.0 mm
02:54 23.8 °C 20.9 °C 1014.0 hPa NE 3.9 km/h 8 km/h 84% 0.0 mm
02:59 23.8 °C 20.9 °C 1014.0 hPa NE 4.1 km/h 8 km/h 84% 0.0 mm
03:04 23.8 °C 20.9 °C 1014.2 hPa NE 4.7 km/h 8 km/h 84% 0.0 mm
03:09 23.7 °C 20.9 °C 1014.2 hPa NE 4.2 km/h 8 km/h 84% 0.0 mm
03:14 23.7 °C 20.8 °C 1014.2 hPa NE 2.9 km/h 3.7 km/h 84% 0.0 mm
03:19 23.7 °C 20.9 °C 1014.2 hPa NE 2.7 km/h 5.6 km/h 84.5% 0.0 mm
03:24 23.7 °C 20.9 °C 1014.2 hPa ENE 2.2 km/h 5.8 km/h 84.5% 0.0 mm
03:29 23.7 °C 21 °C 1014.2 hPa ENE 2.2 km/h 6.4 km/h 85% 0.0 mm
03:34 23.8 °C 21.1 °C 1014.2 hPa ENE 2.2 km/h   85% 0.0 mm
03:39 23.8 °C 21.1 °C 1014.2 hPa ENE 1.6 km/h   85% 0.0 mm
03:44 23.8 °C 21.1 °C 1014.2 hPa Calm     85% 0.0 mm
03:49 23.8 °C 21.1 °C 1014.2 hPa Calm     84.7% 0.0 mm
03:54 23.9 °C 21.1 °C 1014.2 hPa Calm   6.9 km/h 84% 0.0 mm
03:59 23.8 °C 21 °C 1014.2 hPa NO 0.9 km/h 8 km/h 84% 0.0 mm
04:04 23.8 °C 20.9 °C 1014.2 hPa NO 2.9 km/h 8 km/h 84% 0.0 mm
04:09 23.8 °C 20.9 °C 1014.1 hPa NO 3 km/h 7.4 km/h 84% 0.0 mm
04:14 23.8 °C 21 °C 1014.1 hPa ONO 3.2 km/h 8 km/h 84.2% 0.0 mm
04:19 23.7 °C 21 °C 1014.3 hPa Oeste 3.4 km/h 8 km/h 85% 0.0 mm
04:24 23.7 °C 21 °C 1014.3 hPa Oeste 3.9 km/h 8 km/h 85% 0.0 mm
04:29 23.7 °C 20.9 °C 1014.3 hPa Oeste 3.9 km/h 8 km/h 84.4% 0.0 mm
04:34 23.7 °C 21 °C 1014.3 hPa ONO 3.9 km/h 8 km/h 84.9% 0.0 mm
04:39 23.7 °C 20.9 °C 1014.2 hPa ONO 2.9 km/h 5.8 km/h 84.1% 0.0 mm
04:44 23.7 °C 20.8 °C 1014.2 hPa Calm   7.4 km/h 84% 0.0 mm
04:49 23.7 °C 20.8 °C 1014.2 hPa Oeste 1 km/h 8 km/h 84% 0.0 mm
04:54 23.7 °C 20.8 °C 1014.2 hPa Oeste 3.9 km/h 7.4 km/h 84% 0.0 mm
04:59 23.7 °C 20.8 °C 1014.2 hPa Oeste 3.4 km/h 8 km/h 84% 0.0 mm
05:04 23.7 °C 20.8 °C 1014.2 hPa Oeste 2.2 km/h 5 km/h 84% 0.0 mm
05:09 23.7 °C 20.8 °C 1014.1 hPa SE 2.2 km/h 8.4 km/h 84% 0.0 mm
05:14 23.7 °C 20.8 °C 1014.1 hPa Este 2.2 km/h 8 km/h 84% 0.0 mm
05:19 23.7 °C 20.8 °C 1014.1 hPa Este 2.4 km/h 7.4 km/h 84% 0.0 mm
05:24 23.7 °C 21 °C 1013.9 hPa Este 2.9 km/h 8 km/h 85% 0.0 mm
05:29 23.6 °C 20.9 °C 1013.9 hPa NE 3 km/h 8 km/h 85% 0.0 mm
05:34 23.6 °C 20.9 °C 1013.9 hPa NE 3.2 km/h 4.8 km/h 85% 0.0 mm
05:39 23.6 °C 20.9 °C 1013.9 hPa NE 2.4 km/h   85% 0.0 mm
05:44 23.6 °C 20.9 °C 1013.9 hPa Calm     85% 0.0 mm
05:49 23.6 °C 20.9 °C 1013.9 hPa Calm   7.6 km/h 85% 0.0 mm
05:54 23.6 °C 20.9 °C 1013.8 hPa Calm   8.4 km/h 85% 0.0 mm
05:59 23.5 °C 20.9 °C 1013.8 hPa NE 1.4 km/h 8 km/h 85% 0.0 mm
06:04 23.5 °C 20.8 °C 1013.8 hPa NE 4.7 km/h 4.8 km/h 85% 0.0 mm
06:09 23.5 °C 20.8 °C 1013.7 hPa NE 3.3 km/h   85% 0.0 mm
06:14 23.5 °C 20.8 °C 1013.7 hPa Calm     85% 0.0 mm
06:19 23.4 °C 20.8 °C 1013.7 hPa NE 0.7 km/h 9.3 km/h 85% 0.0 mm
06:24 23.4 °C 20.7 °C 1013.3 hPa ENE 2.9 km/h 9.7 km/h 85% 0.0 mm
06:29 23.4 °C 20.7 °C 1013.3 hPa ENE 3 km/h 8 km/h 85% 0.0 mm
06:34 23.4 °C 20.7 °C 1013.3 hPa NE 3.2 km/h 5.8 km/h 85% 0.0 mm
06:39 23.3 °C 20.8 °C 1013.2 hPa NE 3 km/h 6.4 km/h 85.7% 0.0 mm
06:44 23.3 °C 20.8 °C 1013.2 hPa NE 2.2 km/h 4.8 km/h 86% 0.0 mm
06:49 23.3 °C 20.8 °C 1013.6 hPa NE 1.6 km/h 5.6 km/h 86% 0.0 mm
06:54 23.3 °C 20.8 °C 1013.6 hPa Calm   4.8 km/h 86% 0.0 mm
06:59 23.3 °C 20.8 °C 1013.6 hPa Calm   4.8 km/h 86% 0.0 mm
07:04 23.3 °C 20.8 °C 1013.6 hPa Calm   5 km/h 86% 0.0 mm
07:09 23.3 °C 20.8 °C 1013.4 hPa NE 0.6 km/h 5.6 km/h 86% 0.0 mm
07:14 23.2 °C 20.7 °C 1013.4 hPa North 2.2 km/h 5.6 km/h 86% 0.0 mm
07:19 23.2 °C 20.7 °C 1013.5 hPa North 2.2 km/h 4.8 km/h 86% 0.0 mm
07:24 23.2 °C 20.7 °C 1013.5 hPa North 2.2 km/h   86% 0.0 mm
07:29 23.2 °C 20.7 °C 1013.5 hPa North 1.6 km/h 4.7 km/h 86% 0.0 mm
07:34 23.2 °C 20.7 °C 1013.5 hPa Calm   7.4 km/h 86% 0.0 mm
07:39 23.2 °C 20.7 °C 1013.5 hPa NE 0.7 km/h 8 km/h 86% 0.0 mm
07:44 23.1 °C 20.6 °C 1013.5 hPa NE 2.9 km/h 3.2 km/h 86% 0.0 mm
07:49 23.1 °C 20.6 °C 1013.6 hPa NE 2.2 km/h   86% 0.0 mm
07:54 23.2 °C 20.7 °C 1013.6 hPa Calm     86% 0.0 mm
07:59 23.2 °C 20.7 °C 1013.6 hPa Calm   7.6 km/h 86% 0.0 mm
08:04 23.2 °C 20.7 °C 1013.6 hPa Calm   8 km/h 86% 0.0 mm
08:09 23.2 °C 20.7 °C 1013.5 hPa ENE 0.8 km/h 6.4 km/h 86% 0.0 mm
08:14 23.2 °C 20.7 °C 1013.5 hPa NE 3.2 km/h 7.6 km/h 86% 0.0 mm
08:19 23.2 °C 20.7 °C 1013.5 hPa NNE 3.7 km/h 9.3 km/h 86% 0.0 mm
08:24 23.1 °C 20.7 °C 1013.4 hPa NNO 5 km/h 9.7 km/h 86.6% 0.0 mm
08:29 23.2 °C 20.9 °C 1013.4 hPa NNO 4.5 km/h 8 km/h 87% 0.0 mm
08:34 23.2 °C 20.9 °C 1013.4 hPa North 3.2 km/h 8 km/h 87% 0.0 mm
08:39 23.2 °C 20.8 °C 1013.4 hPa NNO 3 km/h 6.4 km/h 86% 0.0 mm
08:44 23.4 °C 20.9 °C 1013.4 hPa NNO 2.2 km/h   86% 0.0 mm
08:49 23.5 °C 21 °C 1013.5 hPa NNO 1.6 km/h   85.5% 0.0 mm
08:54 23.7 °C 21 °C 1013.5 hPa Calm     85% 0.0 mm
08:59 23.9 °C 21 °C 1013.5 hPa ESE 0.7 km/h 8.4 km/h 83.8% 0.0 mm
09:04 24.2 °C 21 °C 1013.5 hPa ENE 2.2 km/h 13 km/h 82.8% 0.0 mm
09:09 24.2 °C 20.9 °C 1013.4 hPa NE 3.2 km/h 16.7 km/h 82% 0.0 mm
09:14 24 °C 20.7 °C 1013.4 hPa NNE 5.8 km/h 16.7 km/h 82% 0.0 mm
09:19 23.9 °C 20.7 °C 1013.7 hPa ENE 6.1 km/h 16.1 km/h 82.6% 0.0 mm
09:24 23.9 °C 20.7 °C 1013.7 hPa NNE 6.9 km/h 9.5 km/h 82.5% 0.0 mm
09:29 24 °C 20.7 °C 1013.7 hPa NE 6.4 km/h 9.7 km/h 82% 0.0 mm
09:34 24.1 °C 20.8 °C 1013.7 hPa NE 4.7 km/h 9.7 km/h 82% 0.0 mm
09:39 24.2 °C 20.9 °C 1013.4 hPa NE 4.7 km/h 14.8 km/h 81.9% 0.0 mm
09:44 24.3 °C 20.8 °C 1013.4 hPa NE 4.7 km/h 18.3 km/h 81% 0.0 mm
09:49 24.4 °C 20.8 °C 1013.4 hPa NE 6.8 km/h 27.8 km/h 80.1% 0.0 mm
09:54 24.7 °C 20.9 °C 1013.1 hPa NE 13 km/h 27.4 km/h 79.2% 0.0 mm
09:59 24.9 °C 20.9 °C 1013.1 hPa NE 13.2 km/h 25.7 km/h 78.1% 0.0 mm
10:04 25.1 °C 20.8 °C 1013.4 hPa NE 13.7 km/h 26.2 km/h 77.1% 0.0 mm
10:09 25.1 °C 20.8 °C 1013.4 hPa NE 14 km/h 25.9 km/h 77% 0.0 mm
10:14 25.2 °C 20.8 °C 1013.4 hPa NE 14.8 km/h 25.7 km/h 77% 0.0 mm
10:19 25.3 °C 20.9 °C 1013.9 hPa NE 14.1 km/h 20.9 km/h 76.4% 0.0 mm
10:24 25.3 °C 20.8 °C 1013.9 hPa NE 11.9 km/h 24.1 km/h 76% 0.0 mm
10:29 25.3 °C 20.8 °C 1013.9 hPa NE 11.9 km/h 24.1 km/h 76% 0.0 mm
10:34 25.3 °C 20.8 °C 1013.9 hPa NE 11.9 km/h 19.3 km/h 76% 0.0 mm
10:39 25.3 °C 20.8 °C 1013.9 hPa NE 11 km/h 16.7 km/h 76% 0.0 mm
10:44 25.6 °C 21 °C 1013.9 hPa NE 8.7 km/h 19 km/h 75.7% 0.0 mm
10:49 25.7 °C 20.9 °C 1014.1 hPa NNE 9.1 km/h 19.3 km/h 75% 0.0 mm
10:54 25.7 °C 20.9 °C 1014.1 hPa NNE 10.3 km/h 19.3 km/h 75% 0.0 mm
10:59 25.8 °C 20.9 °C 1014.1 hPa NE 10.3 km/h 20.4 km/h 74.7% 0.0 mm
11:04 25.8 °C 20.8 °C 1014.2 hPa NE 10.3 km/h 22.5 km/h 74% 0.0 mm
11:09 25.8 °C 20.9 °C 1014.2 hPa NNE 10.3 km/h 22.5 km/h 74.2% 0.0 mm
11:14 25.8 °C 21 °C 1014.2 hPa NNE 10.3 km/h 17.7 km/h 74.8% 0.0 mm
11:19 25.7 °C 20.9 °C 1014.2 hPa NNE 10.5 km/h 17.2 km/h 75% 0.0 mm
11:24 25.7 °C 20.9 °C 1014.0 hPa NNE 11.1 km/h 20.4 km/h 75% 0.0 mm
11:29 25.7 °C 21 °C 1014.0 hPa NE 11.4 km/h 27 km/h 75% 0.0 mm
11:34 25.9 °C 20.7 °C 1014.0 hPa NNE 12.2 km/h 27.8 km/h 73.4% 0.0 mm
11:39 26.2 °C 20.6 °C 1013.9 hPa NE 13.3 km/h 28.2 km/h 71.1% 0.0 mm
11:44 26.6 °C 20.4 °C 1013.9 hPa NE 16.1 km/h 27.4 km/h 68.7% 0.0 mm
11:49 26.8 °C 20.4 °C 1013.9 hPa NE 16.6 km/h 27.8 km/h 67.8% 0.0 mm
11:54 26.9 °C 20.5 °C 1013.9 hPa NE 18 km/h 28.6 km/h 68% 0.0 mm
11:59 27.1 °C 20.6 °C 1013.9 hPa NE 17.5 km/h 29.6 km/h 67.7% 0.0 mm
12:04 27.1 °C 20.4 °C 1014.0 hPa NE 16.4 km/h 29 km/h 66.7% 0.0 mm
12:09 27.2 °C 20.5 °C 1014.0 hPa NE 16.2 km/h 28.2 km/h 67% 0.0 mm
12:14 27 °C 20.3 °C 1014.0 hPa NE 15.6 km/h 29.8 km/h 67% 0.0 mm
12:19 26.9 °C 20.3 °C 1014.0 hPa NE 16.4 km/h 30.6 km/h 67% 0.0 mm
12:24 26.9 °C 20.1 °C 1013.9 hPa NE 18.4 km/h 29.6 km/h 66.6% 0.0 mm
12:29 26.9 °C 20.1 °C 1013.9 hPa NE 18.5 km/h 31.5 km/h 66.3% 0.0 mm
12:34 26.8 °C 20.2 °C 1013.9 hPa NE 19 km/h 33.5 km/h 66.8% 0.0 mm
12:39 26.8 °C 19.8 °C 1013.9 hPa NE 19 km/h 33.8 km/h 65.4% 0.0 mm
12:44 27 °C 20 °C 1013.9 hPa NE 19 km/h 34.3 km/h 65.7% 0.0 mm
12:49 27 °C 20.1 °C 1013.9 hPa NE 18.2 km/h 33.8 km/h 66% 0.0 mm
12:54 27.2 °C 20.2 °C 1013.8 hPa NE 16.1 km/h 25.9 km/h 65.8% 0.0 mm
12:59 27.3 °C 20 °C 1013.8 hPa NE 15.4 km/h 30.9 km/h 64.4% 0.0 mm
13:04 27.3 °C 19.6 °C 1013.8 hPa NE 13.7 km/h 32.2 km/h 63% 0.0 mm
13:09 27.4 °C 19.9 °C 1013.8 hPa NE 14.3 km/h 25.7 km/h 63.9% 0.0 mm
13:14 27.6 °C 20 °C 1013.8 hPa NE 16.1 km/h 29.6 km/h 63.3% 0.0 mm
13:19 27.7 °C 20.1 °C 1013.8 hPa NE 17.1 km/h 35.2 km/h 63.2% 0.0 mm
13:24 27.7 °C 20.4 °C 1013.6 hPa NE 19.8 km/h 38.9 km/h 64.9% 0.0 mm
13:29 27.7 °C 20.5 °C 1013.6 hPa NE 20.1 km/h 38.9 km/h 64.9% 0.0 mm
13:34 27.7 °C 20.4 °C 1013.9 hPa NE 20.9 km/h 38.6 km/h 64.7% 0.0 mm
13:39 27.6 °C 20.6 °C 1013.9 hPa NE 20.1 km/h 33.3 km/h 65.5% 0.0 mm
13:44 27.3 °C 20.6 °C 1013.9 hPa NE 18 km/h 33.8 km/h 66.8% 0.0 mm
13:49 27.3 °C 20.6 °C 1013.9 hPa NE 17 km/h 27.4 km/h 66.9% 0.0 mm
13:54 27.3 °C 20.3 °C 1013.8 hPa NE 14 km/h 30.9 km/h 65.4% 0.0 mm
13:59 27.4 °C 20 °C 1013.8 hPa NE 15 km/h 32.2 km/h 64.1% 0.0 mm
14:04 27.8 °C 19.8 °C 1013.8 hPa NE 17.2 km/h 30.6 km/h 62.1% 0.0 mm
14:09 28.1 °C 19.8 °C 1013.7 hPa NE 16.3 km/h 29.8 km/h 60.5% 0.0 mm
14:14 28.2 °C 19.5 °C 1013.7 hPa ENE 13.7 km/h 30.6 km/h 59.3% 0.0 mm
14:19 28.3 °C 19.5 °C 1013.7 hPa NE 14.6 km/h 30.6 km/h 59% 0.0 mm
14:24 28.4 °C 19.3 °C 1013.6 hPa NE 17.2 km/h 30.6 km/h 58% 0.0 mm
14:29 28.4 °C 19.5 °C 1013.6 hPa NE 17.2 km/h 34.3 km/h 58.6% 0.0 mm
14:34 28.4 °C 19 °C 1013.6 hPa NE 17.2 km/h 33.8 km/h 56.9% 0.0 mm
14:39 28.4 °C 19 °C 1013.4 hPa NE 18 km/h 33.8 km/h 56.8% 0.0 mm
14:44 28.5 °C 19.3 °C 1013.4 hPa NE 20.1 km/h 33.8 km/h 57.4% 0.0 mm
14:49 28.7 °C 19.5 °C 1013.4 hPa NE 18.9 km/h 30.6 km/h 57.8% 0.0 mm
14:54 28.7 °C 19.8 °C 1013.2 hPa ENE 15.6 km/h 30.6 km/h 58.8% 0.0 mm
14:59 28.7 °C 19.8 °C 1013.2 hPa ENE 15.1 km/h 30.6 km/h 59.1% 0.0 mm
15:04 28.7 °C 19.7 °C 1013.2 hPa ENE 14 km/h 28.2 km/h 58.4% 0.0 mm
15:09 28.7 °C 19.7 °C 1012.9 hPa ENE 14.2 km/h 29.6 km/h 58.3% 0.0 mm
15:14 28.8 °C 19.9 °C 1012.9 hPa ENE 14.8 km/h 29.6 km/h 58.3% 0.0 mm
15:19 28.8 °C 19.9 °C 1012.9 hPa NE 15 km/h 29.6 km/h 58.6% 0.0 mm
15:24 28.9 °C 20.1 °C 1012.6 hPa ENE 15.6 km/h 29 km/h 59.4% 0.0 mm
15:29 28.8 °C 20.2 °C 1012.6 hPa NE 15.1 km/h 30.9 km/h 59.5% 0.0 mm
15:34 28.7 °C 20 °C 1012.6 hPa NE 13.7 km/h 32.2 km/h 59.4% 0.0 mm
15:39 28.7 °C 20 °C 1012.6 hPa NE 14.7 km/h 36.2 km/h 59.4% 0.0 mm
15:44 28.8 °C 20 °C 1012.6 hPa ENE 17.2 km/h 37 km/h 59% 0.0 mm
15:49 28.7 °C 20.1 °C 1012.7 hPa NE 17 km/h 29 km/h 59.4% 0.0 mm
15:54 28.7 °C 19.7 °C 1012.7 hPa ENE 16.4 km/h 29.6 km/h 58.5% 0.0 mm
15:59 28.6 °C 19.8 °C 1012.7 hPa NE 16.7 km/h 29 km/h 59% 0.0 mm
16:04 28.7 °C 20 °C 1012.7 hPa NE 17.2 km/h 32.3 km/h 59.3% 0.0 mm
16:09 28.6 °C 20.2 °C 1012.5 hPa NE 17.2 km/h 33.8 km/h 60.7% 0.0 mm
16:14 28.3 °C 20.2 °C 1012.5 hPa NE 17.2 km/h 35.9 km/h 61.5% 0.0 mm
16:19 28.4 °C 20.3 °C 1012.5 hPa NE 17.2 km/h 35.4 km/h 61.6% 0.0 mm
16:24 28.6 °C 20.2 °C 1012.0 hPa NE 17.2 km/h 25.9 km/h 60.4% 0.0 mm
16:29 28.7 °C 20.3 °C 1012.0 hPa NE 16.6 km/h 31.7 km/h 60.5% 0.0 mm
16:34 28.5 °C 20 °C 1012.1 hPa NE 14.8 km/h 32.2 km/h 60.1% 0.0 mm
16:39 28.3 °C 19.9 °C 1012.1 hPa NE 15.7 km/h 35.2 km/h 60.6% 0.0 mm
16:44 28.2 °C 19.6 °C 1012.1 hPa NE 18.4 km/h 35.4 km/h 59.6% 0.0 mm
16:49 28.2 °C 19.8 °C 1012.1 hPa NE 18.3 km/h 32.2 km/h 60.3% 0.0 mm
16:54 28.3 °C 20.1 °C 1012.0 hPa NE 18 km/h 33.5 km/h 61% 0.0 mm
16:59 28.2 °C 20.2 °C 1012.0 hPa NE 17.3 km/h 33.8 km/h 61.9% 0.0 mm
17:04 28.1 °C 20.2 °C 1012.1 hPa ENE 15.6 km/h 34.3 km/h 62.5% 0.0 mm
17:09 27.9 °C 20.7 °C 1012.1 hPa NE 15.4 km/h 33.8 km/h 64.9% 0.0 mm
17:14 27.8 °C 20.9 °C 1012.1 hPa ENE 14.8 km/h 33.8 km/h 66% 0.0 mm
17:19 27.8 °C 20.8 °C 1012.1 hPa ENE 14.6 km/h 29.6 km/h 65.6% 0.0 mm
17:24 27.7 °C 20.6 °C 1012.0 hPa NE 14 km/h 29 km/h 65.3% 0.0 mm
17:29 27.7 °C 20.6 °C 1012.0 hPa NE 14 km/h 27.8 km/h 65.2% 0.0 mm
17:34 27.6 °C 20.4 °C 1012.1 hPa NE 14 km/h 29.1 km/h 65% 0.0 mm
17:39 27.5 °C 20.4 °C 1012.1 hPa NE 14.6 km/h 33.3 km/h 65.4% 0.0 mm
17:44 27.4 °C 20.3 °C 1012.1 hPa NE 16.4 km/h 33.8 km/h 65.2% 0.0 mm
17:49 27.3 °C 20.4 °C 1012.1 hPa NE 17.1 km/h 32.2 km/h 66% 0.0 mm
17:54 27.3 °C 20.3 °C 1011.9 hPa NE 19 km/h 32.2 km/h 65.8% 0.0 mm
17:59 27.3 °C 20.4 °C 1011.9 hPa NE 18.2 km/h 29 km/h 66% 0.0 mm
18:04 27.4 °C 20.2 °C 1012.2 hPa NE 16.4 km/h 26.2 km/h 64.9% 0.0 mm
18:09 27.3 °C 20.2 °C 1012.2 hPa NE 16 km/h 25.9 km/h 65% 0.0 mm
18:14 27.3 °C 20.2 °C 1012.2 hPa NE 14.8 km/h 25.7 km/h 65% 0.0 mm
18:19 27.3 °C 20.2 °C 1012.2 hPa NE 14.1 km/h 25.9 km/h 65% 0.0 mm
18:24 27.3 °C 20.2 °C 1012.2 hPa NE 12.2 km/h 25.9 km/h 65% 0.0 mm
18:29 27.4 °C 20.2 °C 1012.2 hPa NE 12.4 km/h 22.5 km/h 65% 0.0 mm
18:34 27.3 °C 20.2 °C 1012.2 hPa NE 13 km/h 24.1 km/h 65% 0.0 mm
18:39 27.3 °C 20.2 °C 1012.0 hPa NE 13.2 km/h 27.8 km/h 65.2% 0.0 mm
18:44 27.2 °C 20.2 °C 1012.0 hPa NE 13.7 km/h 27.4 km/h 65.7% 0.0 mm
18:49 27.2 °C 19.9 °C 1012.0 hPa NE 13.8 km/h 29.6 km/h 64.5% 0.0 mm
18:54 27.1 °C 19.8 °C 1011.9 hPa NE 14 km/h 29 km/h 64.6% 0.0 mm
18:59 27.1 °C 19.6 °C 1011.9 hPa NE 15.2 km/h 31.5 km/h 63.4% 0.0 mm
19:04 27.1 °C 19.4 °C 1012.0 hPa NE 18 km/h 32.2 km/h 63% 0.0 mm
19:09 27 °C 19.2 °C 1012.0 hPa NE 17.5 km/h 25.9 km/h 62.6% 0.0 mm
19:14 26.9 °C 19 °C 1012.0 hPa NE 16.1 km/h 25.9 km/h 62% 0.0 mm
19:19 26.9 °C 19.2 °C 1012.0 hPa NE 15.8 km/h 25.7 km/h 62.7% 0.0 mm
19:24 26.8 °C 19.2 °C 1012.0 hPa NE 14.8 km/h 24.1 km/h 63% 0.0 mm
19:29 26.8 °C 19.2 °C 1012.0 hPa NNE 14.1 km/h 22.5 km/h 63% 0.0 mm
19:34 26.8 °C 19.1 °C 1012.0 hPa NE 12.2 km/h 27.8 km/h 63% 0.0 mm
19:39 26.7 °C 19.2 °C 1011.7 hPa NE 13.5 km/h 33.3 km/h 63.5% 0.0 mm
19:44 26.6 °C 19.2 °C 1011.7 hPa NE 17.2 km/h 33.8 km/h 64% 0.0 mm
19:49 26.6 °C 19.5 °C 1011.7 hPa NE 17.5 km/h 33.5 km/h 65.4% 0.0 mm
19:54 26.4 °C 19.7 °C 1011.3 hPa NE 18.4 km/h 33.8 km/h 66.7% 0.0 mm
19:59 26.4 °C 20 °C 1011.3 hPa NE 17 km/h 25.7 km/h 67.9% 0.0 mm
20:04 26.3 °C 20 °C 1011.3 hPa NE 14 km/h 29.6 km/h 68.3% 0.0 mm
20:09 26.2 °C 20.2 °C 1011.1 hPa NE 14.5 km/h 29 km/h 69.8% 0.0 mm
20:14 26.1 °C 20.4 °C 1011.1 hPa NE 16.1 km/h 27.8 km/h 71% 0.0 mm
20:19 26.1 °C 20.6 °C 1011.4 hPa NE 15.5 km/h 25.7 km/h 71.9% 0.0 mm
20:24 26 °C 20.5 °C 1011.4 hPa NNE 14 km/h 26.2 km/h 72% 0.0 mm
20:29 25.9 °C 20.6 °C 1011.4 hPa NE 13.5 km/h 25.7 km/h 72.9% 0.0 mm
20:34 25.8 °C 20.6 °C 1011.5 hPa NE 12.2 km/h 24.1 km/h 73% 0.0 mm
20:39 25.8 °C 20.6 °C 1011.5 hPa NE 12.2 km/h 24.1 km/h 73% 0.0 mm
20:44 25.8 °C 20.6 °C 1011.5 hPa NE 12.2 km/h 20.4 km/h 73% 0.0 mm
20:49 25.7 °C 20.7 °C 1011.5 hPa NE 11.9 km/h 20.9 km/h 73.8% 0.0 mm
20:54 25.7 °C 20.7 °C 1011.5 hPa NE 11.1 km/h 19.3 km/h 74% 0.0 mm
20:59 25.7 °C 20.7 °C 1011.5 hPa NE 10.8 km/h 17.7 km/h 74% 0.0 mm
21:04 25.7 °C 20.7 °C 1011.6 hPa NE 10 km/h 20.4 km/h 74% 0.0 mm
21:09 25.6 °C 20.6 °C 1011.6 hPa NE 10 km/h 22.2 km/h 74% 0.0 mm
21:14 25.6 °C 20.6 °C 1011.6 hPa NE 10 km/h 22.5 km/h 74% 0.0 mm
21:19 25.6 °C 20.6 °C 1011.8 hPa NE 9.8 km/h 19.3 km/h 74% 0.0 mm
21:24 25.5 °C 20.7 °C 1011.8 hPa NNE 9.5 km/h 14.5 km/h 74.9% 0.0 mm
21:29 25.4 °C 20.7 °C 1011.8 hPa NE 8.8 km/h 13 km/h 75% 0.0 mm
21:34 25.4 °C 20.7 °C 1012.2 hPa NNE 6.9 km/h 11.3 km/h 75% 0.0 mm
21:39 25.3 °C 20.6 °C 1012.2 hPa North 6.4 km/h 8.4 km/h 75% 0.0 mm
21:44 25.3 °C 20.6 °C 1012.2 hPa NNO 5 km/h 9.5 km/h 75% 0.0 mm
21:49 25.4 °C 20.7 °C 1012.7 hPa NE 4.5 km/h 9.7 km/h 75% 0.0 mm
21:54 25.4 °C 20.7 °C 1012.7 hPa NE 3.2 km/h 5.8 km/h 75.1% 0.0 mm
21:59 25.4 °C 20.8 °C 1012.7 hPa ENE 3.2 km/h 8.4 km/h 75.4% 0.0 mm
22:04 25.5 °C 20.9 °C 1012.9 hPa Este 3.2 km/h 16.7 km/h 75.8% 0.0 mm
22:09 25.5 °C 21 °C 1012.9 hPa ENE 5 km/h 22.2 km/h 76.2% 0.0 mm
22:14 25.4 °C 21.1 °C 1012.9 hPa ENE 10 km/h 22.5 km/h 77.4% 0.0 mm
22:19 25.4 °C 21.3 °C 1013.5 hPa ONO 9.1 km/h 14.5 km/h 78.1% 0.0 mm
22:24 25.3 °C 21.2 °C 1013.5 hPa NO 6.9 km/h 11.3 km/h 78.3% 0.0 mm
22:29 25.3 °C 21.4 °C 1013.5 hPa NNO 6.4 km/h 9.7 km/h 79% 0.0 mm
22:34 25.3 °C 21.3 °C 1013.5 hPa NO 4.7 km/h 9.5 km/h 79% 0.0 mm
22:39 25.2 °C 21.4 °C 1013.3 hPa NO 4.4 km/h 9.7 km/h 79.5% 0.0 mm
22:44 25.2 °C 21.5 °C 1013.3 hPa NO 3.9 km/h 8 km/h 80% 0.0 mm
22:49 25.1 °C 21.4 °C 1013.5 hPa North 3.6 km/h 8 km/h 80% 0.0 mm
22:54 25.1 °C 21.4 °C 1013.5 hPa ONO 2.9 km/h 6.4 km/h 80% 0.0 mm
22:59 25.1 °C 21.4 °C 1013.5 hPa NO 2.7 km/h 6.4 km/h 80% 0.0 mm
23:04 25.1 °C 21.4 °C 1013.5 hPa NO 2.2 km/h 6.4 km/h 80% 0.0 mm
23:09 25.1 °C 21.4 °C 1013.4 hPa ONO 2.4 km/h 7.4 km/h 80% 0.0 mm
23:14 25.1 °C 21.4 °C 1013.4 hPa Oeste 2.9 km/h 8.4 km/h 80% 0.0 mm
23:19 25.2 °C 21.4 °C 1013.6 hPa ONO 3.2 km/h 9.5 km/h 80% 0.0 mm
23:24 25.2 °C 21.5 °C 1013.6 hPa NO 3.9 km/h 9.7 km/h 80% 0.0 mm
23:29 25.2 °C 21.5 °C 1013.6 hPa NNO 4.2 km/h 8.4 km/h 80% 0.0 mm
23:34 25.2 °C 21.6 °C 1013.6 hPa NNO 5 km/h 8.4 km/h 80.6% 0.0 mm
23:39 25.1 °C 21.6 °C 1013.6 hPa NO 5 km/h 9.5 km/h 81% 0.0 mm
23:44 25.1 °C 21.6 °C 1013.6 hPa NNE 5 km/h 10.3 km/h 80.9% 0.0 mm
23:49 25.1 °C 21.5 °C 1013.6 hPa NE 5 km/h 11.3 km/h 80.5% 0.0 mm
23:54 25.2 °C 21.6 °C 1013.6 hPa NNE 5 km/h 11.1 km/h 80.6% 0.0 mm
23:59 25.2 °C 21.7 °C 1013.6 hPa North 5 km/h 11.3 km/h 80.7% 0.0 mm
Murcia-Puente Tocinos, Espa?a
Compliments of Weather Underground - 3 mb

La estación de MeteoMurcia.com, publica sus datos en los siguientes proyectos:

Weather Underground PWS IMURCIAP2 Meteoclimatic www.awekas.at

Web Analytics

Clicky